Accueil
METAR-TAF:

METAR-TAF

Aéroports :

Lannion, France

Aéroport de Lannion-Côte de Granit

latitude: 48-45N, longitude: 003-28W, altitude: 89 m

Observation

Le bulletin a été fait il y a 16 minutes, à 19:00 UTC
Vent 7 kt de nord/nord-ouest
Température 5°C
Humidité 65%
Pression 998 hPa
Visibilité 10 km ou plus
Quelques nuages à une hauteur de 3500 ft

METAR: LFRO 111900Z AUTO 33007KT 9999 FEW035 05/M01 Q0998 NOSIG

Heure: 20:16 (19:16 UTC)

Prévision

Le bulletin a été fait il y a 2 heures et 16 minutes, à 17:00 UTC
Prévision valable du 11 à 18 UTC au 12 à 18 UTC
Vent 14 kt de nord/nord-ouest avec des rafales jusqu'à 25 kt
Visibilité 10 km ou plus
Nuages épars à une hauteur de 2900 ft
Nuages fragmentés à une hauteur de 4000 ft
Temporairement
du 12 à 12 UTC au 12 à 15 UTC
averses de pluie

TAF: LFRO 111700Z 1118/1218 34014G25KT 9999 SCT029 BKN040 TEMPO 1212/1215 SHRA

Observations et prévisions météorologiques de plus de 4000 aéroports (messages METAR et TAF).

Les stations disponibles sont représentées par des disques jaunes et rouges sur la carte.

Passer la souris dessus pour voir le nom de la station.

Cliquer dessus pour voir les observations et prévisions météorologiques.

Pour changer de carte: cliquez sur les boutons verts avec une croix noire pour zoomer, sur le bouton vert avec un tiret pour effectuer un zoom arrière, ou sur les flèches vertes pour les cartes adjacentes.


METAR-TAF: